createdAt,value
2019-01-13T00:01:56.415Z,41.10
2019-01-13T00:05:03.247Z,42.00
2019-01-13T00:08:10.174Z,42.80
2019-01-13T00:11:17.106Z,43.20
2019-01-13T00:14:23.106Z,43.00
2019-01-13T00:17:30.075Z,42.20
2019-01-13T00:20:35.985Z,42.30
2019-01-13T00:23:42.596Z,42.20
2019-01-13T00:26:48.462Z,42.30
2019-01-13T00:29:54.270Z,42.20
2019-01-13T00:33:00.143Z,42.10
2019-01-13T00:36:06.089Z,42.20
2019-01-13T00:39:11.871Z,42.10
2019-01-13T00:42:17.834Z,42.20
2019-01-13T00:45:23.790Z,43.90
2019-01-13T00:48:29.574Z,43.90
2019-01-13T00:51:35.254Z,43.80
2019-01-13T00:54:41.182Z,42.90
2019-01-13T00:57:46.991Z,43.10
2019-01-13T01:00:52.712Z,43.10
2019-01-13T01:03:58.445Z,44.00
2019-01-13T01:07:04.482Z,43.10
2019-01-13T01:10:12.602Z,43.00
2019-01-13T01:13:20.230Z,42.90
2019-01-13T01:16:26.054Z,42.90
2019-01-13T01:19:31.937Z,38.30
2019-01-13T01:22:37.663Z,38.10
2019-01-13T01:25:43.238Z,37.90
2019-01-13T01:28:49.010Z,37.80
2019-01-13T01:31:54.650Z,37.60
2019-01-13T01:35:00.390Z,37.80
2019-01-13T01:38:06.515Z,38.00
2019-01-13T01:41:12.331Z,38.00
2019-01-13T01:44:17.947Z,38.20
2019-01-13T01:47:23.742Z,38.20
2019-01-13T01:50:29.383Z,38.20
2019-01-13T01:53:35.107Z,38.40
2019-01-13T01:56:40.801Z,38.30
2019-01-13T01:59:46.466Z,38.40
2019-01-13T02:02:52.313Z,38.90
2019-01-13T02:05:58.035Z,39.60
2019-01-13T02:09:06.330Z,40.60
2019-01-13T02:12:13.578Z,41.70
2019-01-13T02:15:25.202Z,41.80
2019-01-13T02:18:30.898Z,41.90
2019-01-13T02:21:36.572Z,42.00
2019-01-13T02:24:42.222Z,41.90
2019-01-13T02:27:48.050Z,42.00
2019-01-13T02:30:53.706Z,42.00
2019-01-13T02:33:59.385Z,41.90
2019-01-13T02:37:06.738Z,42.00
2019-01-13T02:40:14.347Z,42.00
2019-01-13T02:43:20.002Z,42.20
2019-01-13T02:46:25.684Z,42.20
2019-01-13T02:49:31.355Z,42.10
2019-01-13T02:52:36.983Z,42.20
2019-01-13T02:55:42.642Z,42.20
2019-01-13T02:58:48.291Z,42.20
2019-01-13T03:01:54.057Z,42.30
2019-01-13T03:04:59.698Z,42.30
2019-01-13T03:08:05.631Z,42.20
2019-01-13T03:11:11.311Z,42.20
2019-01-13T03:14:16.966Z,42.20
2019-01-13T03:17:22.621Z,42.20
2019-01-13T03:20:28.278Z,42.40
2019-01-13T03:23:33.903Z,42.50
2019-01-13T03:26:39.583Z,42.70
2019-01-13T03:29:46.226Z,42.70
2019-01-13T03:32:52.015Z,42.90
2019-01-13T03:36:00.118Z,42.80
2019-01-13T03:39:08.619Z,42.90
2019-01-13T03:42:14.263Z,42.90
2019-01-13T03:45:20.051Z,43.00
2019-01-13T03:48:26.691Z,43.00
2019-01-13T03:51:32.385Z,43.10
2019-01-13T03:54:39.730Z,43.00
2019-01-13T03:57:45.394Z,43.00
2019-01-13T04:00:51.075Z,43.20
2019-01-13T04:03:56.734Z,43.00
2019-01-13T04:07:02.378Z,43.20
2019-01-13T04:10:08.852Z,43.20
2019-01-13T04:13:14.509Z,43.10
2019-01-13T04:16:20.644Z,43.70
2019-01-13T04:19:26.303Z,43.20
2019-01-13T04:22:31.976Z,43.20
2019-01-13T04:25:37.758Z,43.10
2019-01-13T04:28:43.384Z,43.10
2019-01-13T04:31:49.038Z,43.00
2019-01-13T04:34:54.663Z,43.10
2019-01-13T04:38:00.378Z,43.00
2019-01-13T04:41:05.966Z,43.20
2019-01-13T04:44:11.666Z,43.00
2019-01-13T04:47:17.294Z,43.00
2019-01-13T04:50:22.995Z,43.10
2019-01-13T04:53:28.574Z,43.10
2019-01-13T04:56:34.370Z,43.30
2019-01-13T04:59:40.010Z,43.10
2019-01-13T05:02:45.854Z,43.00
2019-01-13T05:05:51.520Z,43.10
2019-01-13T05:08:57.202Z,43.10
2019-01-13T05:12:02.826Z,40.80
2019-01-13T05:15:08.831Z,40.80
2019-01-13T05:18:15.442Z,40.80
2019-01-13T05:21:21.154Z,40.80
2019-01-13T05:24:26.764Z,40.80
2019-01-13T05:27:33.566Z,40.70
2019-01-13T05:30:39.198Z,40.80
2019-01-13T05:33:44.899Z,40.90
2019-01-13T05:36:50.484Z,40.80
2019-01-13T05:39:56.198Z,40.80
2019-01-13T05:43:01.811Z,40.80
2019-01-13T05:46:07.469Z,40.70
2019-01-13T05:49:13.115Z,40.70
2019-01-13T05:52:18.739Z,40.80
2019-01-13T05:55:24.802Z,40.80
2019-01-13T05:58:30.453Z,40.80
2019-01-13T06:01:36.135Z,40.80
2019-01-13T06:04:41.793Z,40.80
2019-01-13T06:07:47.438Z,40.80
2019-01-13T06:10:53.099Z,40.80
2019-01-13T06:13:58.747Z,40.80
2019-01-13T06:17:04.403Z,40.80
2019-01-13T06:20:12.923Z,40.80
2019-01-13T06:23:18.545Z,40.80
2019-01-13T06:26:24.227Z,40.80
2019-01-13T06:29:29.878Z,40.80
2019-01-13T06:32:35.532Z,40.90
2019-01-13T06:35:41.162Z,40.90
2019-01-13T06:38:46.806Z,41.00
2019-01-13T06:41:52.694Z,40.90
2019-01-13T06:44:58.447Z,40.90
2019-01-13T06:48:04.080Z,40.80
2019-01-13T06:51:09.750Z,40.90
2019-01-13T06:54:15.490Z,40.90
2019-01-13T06:57:21.350Z,40.80
2019-01-13T07:00:31.890Z,40.80
2019-01-13T07:03:37.587Z,40.80
2019-01-13T07:06:43.246Z,40.70
2019-01-13T07:09:48.891Z,40.80
2019-01-13T07:12:54.520Z,40.70
2019-01-13T07:16:00.286Z,40.70
2019-01-13T07:19:05.971Z,40.70
2019-01-13T07:22:11.609Z,40.60
2019-01-13T07:25:17.258Z,40.60
2019-01-13T07:28:22.910Z,40.50
2019-01-13T07:31:28.675Z,40.60
2019-01-13T07:34:34.294Z,40.50
2019-01-13T07:37:39.974Z,40.50
2019-01-13T07:40:45.627Z,40.60
2019-01-13T07:43:51.268Z,40.60
2019-01-13T07:46:56.902Z,40.60
2019-01-13T07:50:02.766Z,40.60
2019-01-13T07:53:08.448Z,40.50
2019-01-13T07:56:14.095Z,40.50
2019-01-13T07:59:19.724Z,40.50
2019-01-13T08:02:27.183Z,40.40
2019-01-13T08:05:32.790Z,40.50
2019-01-13T08:08:38.433Z,40.20
2019-01-13T08:11:44.080Z,40.70
2019-01-13T08:14:50.016Z,40.70
2019-01-13T08:17:55.738Z,40.70
2019-01-13T08:21:01.346Z,40.60
2019-01-13T08:24:07.040Z,40.50
2019-01-13T08:27:12.626Z,40.60
2019-01-13T08:30:19.778Z,40.50
2019-01-13T08:33:25.386Z,40.60
2019-01-13T08:36:31.177Z,40.50
2019-01-13T08:39:36.774Z,40.50
2019-01-13T08:42:42.483Z,40.50
2019-01-13T08:45:50.417Z,40.40
2019-01-13T08:48:55.614Z,40.40
2019-01-13T08:52:01.255Z,40.50
2019-01-13T08:55:07.727Z,40.40
2019-01-13T08:58:13.592Z,40.30
2019-01-13T09:01:19.547Z,40.30
2019-01-13T09:04:25.210Z,40.20
2019-01-13T09:07:30.964Z,40.20
2019-01-13T09:10:36.782Z,40.30
2019-01-13T09:13:42.897Z,40.20
2019-01-13T09:16:48.499Z,40.10
2019-01-13T09:19:54.221Z,40.10
2019-01-13T09:23:01.234Z,40.10
2019-01-13T09:26:06.890Z,40.10
2019-01-13T09:29:12.542Z,40.00
2019-01-13T09:32:18.222Z,39.90
2019-01-13T09:35:24.387Z,40.70
2019-01-13T09:38:30.040Z,40.00
2019-01-13T09:41:37.491Z,40.00
2019-01-13T09:44:43.186Z,40.00
2019-01-13T09:47:49.842Z,40.10
2019-01-13T09:50:55.829Z,40.00
2019-01-13T09:54:01.473Z,40.00
2019-01-13T09:57:07.130Z,40.00
2019-01-13T10:00:32.011Z,40.00
2019-01-13T10:03:37.684Z,40.00
2019-01-13T10:06:43.310Z,39.80
2019-01-13T10:09:48.962Z,40.30
2019-01-13T10:12:54.747Z,40.70
2019-01-13T10:16:00.401Z,40.80
2019-01-13T10:19:06.051Z,40.90
2019-01-13T10:22:11.674Z,40.90
2019-01-13T10:25:17.635Z,41.00
2019-01-13T10:28:23.297Z,41.10
2019-01-13T10:31:28.951Z,41.30
2019-01-13T10:34:34.723Z,41.40
2019-01-13T10:37:40.374Z,41.30
2019-01-13T10:40:46.030Z,41.40
2019-01-13T10:43:51.758Z,41.40
2019-01-13T10:46:57.410Z,41.40
2019-01-13T10:50:05.091Z,41.60
2019-01-13T10:53:10.790Z,41.60
2019-01-13T10:56:16.442Z,41.60
2019-01-13T10:59:22.200Z,41.70
2019-01-13T11:02:27.850Z,41.70
2019-01-13T11:05:33.484Z,41.60
2019-01-13T11:08:39.235Z,41.60
2019-01-13T11:11:44.886Z,41.70
2019-01-13T11:14:50.564Z,41.70
2019-01-13T11:17:56.424Z,41.70
2019-01-13T11:21:03.467Z,41.90
2019-01-13T11:24:09.034Z,41.90
2019-01-13T11:27:15.802Z,42.10
2019-01-13T11:30:22.615Z,42.30
2019-01-13T11:33:28.307Z,42.50
2019-01-13T11:36:34.038Z,42.60
2019-01-13T11:39:39.694Z,42.80
2019-01-13T11:42:45.415Z,42.90
2019-01-13T11:45:51.133Z,42.90
2019-01-13T11:48:56.841Z,43.30
2019-01-13T11:52:02.539Z,40.80
2019-01-13T11:55:09.858Z,41.00
2019-01-13T11:58:15.769Z,42.30
2019-01-13T12:01:21.890Z,42.60
2019-01-13T12:04:27.580Z,42.60
2019-01-13T12:07:33.190Z,42.70
2019-01-13T12:11:26.003Z,42.60
2019-01-13T12:14:04.286Z,42.80
2019-01-13T12:17:09.951Z,42.80
2019-01-13T12:20:17.834Z,42.90
2019-01-13T12:23:23.637Z,42.90
2019-01-13T12:26:29.356Z,43.30
2019-01-13T12:29:35.222Z,43.20
2019-01-13T12:32:40.859Z,43.20
2019-01-13T12:35:46.591Z,43.20
2019-01-13T12:38:52.270Z,43.40
2019-01-13T12:41:58.027Z,43.40
2019-01-13T12:45:03.785Z,43.30
2019-01-13T12:48:09.643Z,43.30
2019-01-13T12:51:15.379Z,43.80
2019-01-13T12:54:21.049Z,44.10
2019-01-13T12:57:26.703Z,44.00
2019-01-13T13:00:32.356Z,43.80
2019-01-13T13:03:38.007Z,43.50
2019-01-13T13:06:43.714Z,43.20
2019-01-13T13:09:49.545Z,42.90
2019-01-13T13:12:55.272Z,42.70
2019-01-13T13:16:01.137Z,42.60
2019-01-13T13:19:06.888Z,42.30
2019-01-13T13:22:12.651Z,42.10
2019-01-13T13:25:19.322Z,42.00
2019-01-13T13:28:25.166Z,41.80
2019-01-13T13:31:30.974Z,41.90
2019-01-13T13:34:36.663Z,41.70
2019-01-13T13:37:42.829Z,41.70
2019-01-13T13:40:48.498Z,41.60
2019-01-13T13:43:54.255Z,41.50
2019-01-13T13:46:59.908Z,41.40
2019-01-13T13:50:08.398Z,42.10
2019-01-13T13:53:15.078Z,41.40
2019-01-13T13:56:20.760Z,41.30
2019-01-13T13:59:26.436Z,41.30
2019-01-13T14:02:32.138Z,41.40
2019-01-13T14:05:38.301Z,41.40
2019-01-13T14:08:44.062Z,42.10
2019-01-13T14:11:49.734Z,43.10
2019-01-13T14:14:55.478Z,43.20
2019-01-13T14:18:02.235Z,43.20
2019-01-13T14:21:08.014Z,43.20
2019-01-13T14:24:13.700Z,43.00
2019-01-13T14:27:19.522Z,43.00
2019-01-13T14:30:26.503Z,42.90
2019-01-13T14:33:32.134Z,43.00
2019-01-13T14:36:37.814Z,42.80
2019-01-13T14:39:48.705Z,42.90
2019-01-13T14:42:51.878Z,42.90
2019-01-13T14:45:58.537Z,42.80
2019-01-13T14:49:04.310Z,42.90
2019-01-13T14:52:09.974Z,42.80
2019-01-13T14:55:16.279Z,42.80
2019-01-13T14:58:22.008Z,42.80
2019-01-13T15:01:27.643Z,42.80
2019-01-13T15:04:33.370Z,42.80
2019-01-13T15:07:39.130Z,42.80
2019-01-13T15:10:44.907Z,42.80
2019-01-13T15:13:51.715Z,42.80
2019-01-13T15:16:57.419Z,42.80
2019-01-13T15:20:03.230Z,42.80
2019-01-13T15:23:09.151Z,42.70
2019-01-13T15:26:15.165Z,42.70
2019-01-13T15:29:21.249Z,42.60
2019-01-13T15:32:27.339Z,42.60
2019-01-13T15:35:35.186Z,42.50
2019-01-13T15:38:41.831Z,42.50
2019-01-13T15:41:47.916Z,42.50
2019-01-13T15:44:53.866Z,42.50
2019-01-13T15:47:59.818Z,43.10
2019-01-13T15:51:05.910Z,42.40
2019-01-13T15:54:11.804Z,42.50
2019-01-13T15:57:17.850Z,42.40
2019-01-13T16:00:28.819Z,42.30
2019-01-13T16:03:34.578Z,42.50
2019-01-13T16:06:40.767Z,42.40
2019-01-13T16:09:47.694Z,42.30
2019-01-13T16:12:53.752Z,42.30
2019-01-13T16:15:59.602Z,42.20
2019-01-13T16:19:05.863Z,42.30
2019-01-13T16:22:11.747Z,42.20
2019-01-13T16:25:17.370Z,42.20
2019-01-13T16:28:23.058Z,42.10
2019-01-13T16:31:29.066Z,42.50
2019-01-13T16:34:35.076Z,42.70
2019-01-13T16:37:41.381Z,42.80
2019-01-13T16:41:06.779Z,42.80
2019-01-13T16:44:13.026Z,42.90
2019-01-13T16:47:20.655Z,43.00
2019-01-13T16:50:27.938Z,43.10
2019-01-13T16:53:33.908Z,43.20
2019-01-13T16:56:40.320Z,43.50
2019-01-13T16:59:46.682Z,43.50
2019-01-13T17:02:52.522Z,43.50
2019-01-13T17:06:07.742Z,43.50
2019-01-13T17:09:14.024Z,43.60
2019-01-13T17:12:19.964Z,43.60
2019-01-13T17:15:37.323Z,43.60
2019-01-13T17:18:51.634Z,43.60
2019-01-13T17:21:57.549Z,43.70
2019-01-13T17:25:03.682Z,43.60
2019-01-13T17:28:14.522Z,43.70
2019-01-13T17:31:21.202Z,43.70
2019-01-13T17:34:26.828Z,43.60
2019-01-13T17:37:32.510Z,43.80
2019-01-13T17:40:38.154Z,43.90
2019-01-13T17:43:43.787Z,44.10
2019-01-13T17:46:49.462Z,44.80
2019-01-13T17:49:55.118Z,44.10
2019-01-13T17:53:00.847Z,43.90
2019-01-13T17:56:06.506Z,44.20
2019-01-13T17:59:12.179Z,43.90
2019-01-13T18:02:19.406Z,43.90
2019-01-13T18:05:25.118Z,44.10
2019-01-13T18:08:30.775Z,44.00
2019-01-13T18:11:36.738Z,44.40
2019-01-13T18:14:44.110Z,44.60
2019-01-13T18:17:50.091Z,44.60
2019-01-13T18:20:56.743Z,45.00
2019-01-13T18:24:03.379Z,45.30
2019-01-13T18:27:09.456Z,45.50
2019-01-13T18:30:18.770Z,45.40
2019-01-13T18:33:25.382Z,45.40
2019-01-13T18:36:32.289Z,45.10
2019-01-13T18:39:39.289Z,44.80
2019-01-13T18:42:47.784Z,44.90
2019-01-13T18:45:54.695Z,44.80
2019-01-13T18:49:01.517Z,44.80
2019-01-13T18:52:09.479Z,44.70
2019-01-13T18:55:16.331Z,44.40
2019-01-13T18:58:22.956Z,44.50
2019-01-13T19:01:29.926Z,44.60
2019-01-13T19:04:38.388Z,44.20
2019-01-13T19:07:45.601Z,44.30
2019-01-13T19:11:02.118Z,44.50
2019-01-13T19:14:44.818Z,44.30
2019-01-13T19:17:52.798Z,44.70
2019-01-13T19:20:59.003Z,44.80
2019-01-13T19:24:06.671Z,44.70
2019-01-13T19:27:12.875Z,44.70
2019-01-13T19:30:19.919Z,44.80
2019-01-13T19:33:27.064Z,44.70
2019-01-13T19:36:34.099Z,44.60
2019-01-13T19:39:40.654Z,44.60
2019-01-13T19:42:47.226Z,44.50
2019-01-13T19:45:53.793Z,44.60
2019-01-13T19:49:00.710Z,44.40
2019-01-13T19:52:07.660Z,44.40
2019-01-13T19:55:15.852Z,44.20
2019-01-13T19:58:22.832Z,44.10
2019-01-13T20:01:30.376Z,44.00
2019-01-13T20:04:36.954Z,44.10
2019-01-13T20:07:43.639Z,44.00
2019-01-13T20:10:50.343Z,43.70
2019-01-13T20:13:57.338Z,43.60
2019-01-13T20:17:04.459Z,43.70
2019-01-13T20:20:12.130Z,43.50
2019-01-13T20:23:19.898Z,43.40
2019-01-13T20:26:27.112Z,43.40
2019-01-13T20:29:33.506Z,43.50
2019-01-13T20:32:40.122Z,43.50
2019-01-13T20:35:47.221Z,43.50
2019-01-13T20:38:53.555Z,43.50
2019-01-13T20:42:00.494Z,43.30
2019-01-13T20:45:08.908Z,43.20
2019-01-13T20:48:14.663Z,43.20
2019-01-13T20:51:20.311Z,43.20
2019-01-13T20:54:25.950Z,43.20
2019-01-13T20:57:31.618Z,43.20
2019-01-13T21:00:37.751Z,43.10
2019-01-13T21:03:43.441Z,43.20
2019-01-13T21:06:49.194Z,43.20
2019-01-13T21:09:54.818Z,42.90
2019-01-13T21:13:00.580Z,42.90
2019-01-13T21:16:06.257Z,43.20
2019-01-13T21:19:11.915Z,43.80
2019-01-13T21:22:17.535Z,43.90
2019-01-13T21:25:23.190Z,43.80
2019-01-13T21:28:28.962Z,43.80
2019-01-13T21:31:34.622Z,43.70
2019-01-13T21:34:40.250Z,43.60
2019-01-13T21:37:45.927Z,43.60
2019-01-13T21:40:51.575Z,43.50
2019-01-13T21:43:57.341Z,43.30
2019-01-13T21:47:04.558Z,43.30
2019-01-13T21:50:12.520Z,43.30
2019-01-13T21:53:18.298Z,43.20
2019-01-13T21:56:24.014Z,43.20
2019-01-13T21:59:29.778Z,43.10
2019-01-13T22:02:35.435Z,43.10
2019-01-13T22:05:41.500Z,43.10
2019-01-13T22:08:47.158Z,43.10
2019-01-13T22:11:53.138Z,43.10
2019-01-13T22:14:58.776Z,43.00
2019-01-13T22:18:04.646Z,43.00
2019-01-13T22:21:10.393Z,43.00
2019-01-13T22:24:16.155Z,42.90
2019-01-13T22:27:21.794Z,42.80
2019-01-13T22:30:27.565Z,42.80
2019-01-13T22:33:33.178Z,42.70
2019-01-13T22:36:39.202Z,42.70
2019-01-13T22:39:44.899Z,42.70
2019-01-13T22:42:51.263Z,42.60
2019-01-13T22:45:56.918Z,42.60
2019-01-13T22:49:02.682Z,42.60
2019-01-13T22:52:11.010Z,42.60
2019-01-13T22:55:17.102Z,43.30
2019-01-13T22:58:22.712Z,42.70
2019-01-13T23:01:37.386Z,42.90
2019-01-13T23:04:43.047Z,42.60
2019-01-13T23:07:48.675Z,40.00
2019-01-13T23:10:54.526Z,41.70
2019-01-13T23:14:00.312Z,43.00
2019-01-13T23:17:06.067Z,43.00
2019-01-13T23:20:12.030Z,43.20
2019-01-13T23:23:17.674Z,43.20
2019-01-13T23:26:23.406Z,43.10
2019-01-13T23:29:29.066Z,43.20
2019-01-13T23:32:34.741Z,43.10
2019-01-13T23:35:40.394Z,43.00
2019-01-13T23:38:46.020Z,43.20
2019-01-13T23:41:51.793Z,43.10
2019-01-13T23:44:57.530Z,43.30
2019-01-13T23:48:03.207Z,43.40
2019-01-13T23:51:08.859Z,43.30
2019-01-13T23:54:14.516Z,43.30
2019-01-13T23:57:20.142Z,44.10
